sensor_id;sensor_type;location;lat;lon;timestamp;pressure;altitude;pressure_sealevel;temperature;humidity
55540;BME280;41384;51.418;7.286;2022-07-22T00:02:14;100355.00;;;18.89;100.00
55540;BME280;41384;51.418;7.286;2022-07-22T00:04:40;100361.91;;;18.85;100.00
55540;BME280;41384;51.418;7.286;2022-07-22T00:07:05;100350.38;;;19.24;100.00
55540;BME280;41384;51.418;7.286;2022-07-22T00:09:30;100358.56;;;19.12;99.68
55540;BME280;41384;51.418;7.286;2022-07-22T00:11:56;100358.59;;;19.17;99.43
55540;BME280;41384;51.418;7.286;2022-07-22T00:14:21;100363.47;;;19.20;98.67
55540;BME280;41384;51.418;7.286;2022-07-22T00:16:47;100354.69;;;19.03;100.00
55540;BME280;41384;51.418;7.286;2022-07-22T00:19:12;100358.59;;;19.17;97.91
55540;BME280;41384;51.418;7.286;2022-07-22T00:21:38;100358.72;;;19.28;97.01
55540;BME280;41384;51.418;7.286;2022-07-22T00:24:03;100360.50;;;19.22;97.75
55540;BME280;41384;51.418;7.286;2022-07-22T00:26:29;100361.56;;;19.21;97.38
55540;BME280;41384;51.418;7.286;2022-07-22T00:28:54;100360.28;;;19.23;96.96
55540;BME280;41384;51.418;7.286;2022-07-22T00:31:20;100353.69;;;19.09;99.99
55540;BME280;41384;51.418;7.286;2022-07-22T00:33:45;100360.50;;;19.00;100.00
55540;BME280;41384;51.418;7.286;2022-07-22T00:36:10;100358.34;;;19.19;99.36
55540;BME280;41384;51.418;7.286;2022-07-22T00:38:35;100358.41;;;19.24;97.56
55540;BME280;41384;51.418;7.286;2022-07-22T00:41:01;100363.28;;;19.05;98.41
55540;BME280;41384;51.418;7.286;2022-07-22T00:43:26;100360.84;;;19.25;97.89
55540;BME280;41384;51.418;7.286;2022-07-22T00:45:52;100352.13;;;19.13;96.29
55540;BME280;41384;51.418;7.286;2022-07-22T00:48:17;100354.00;;;19.13;96.08
55540;BME280;41384;51.418;7.286;2022-07-22T00:50:42;100353.44;;;19.10;96.89
55540;BME280;41384;51.418;7.286;2022-07-22T00:53:08;100349.13;;;19.09;97.36
55540;BME280;41384;51.418;7.286;2022-07-22T00:55:34;100353.50;;;19.16;96.11
55540;BME280;41384;51.418;7.286;2022-07-22T00:58:01;100349.94;;;18.88;97.83
55540;BME280;41384;51.418;7.286;2022-07-22T01:00:27;100352.59;;;19.05;96.18
55540;BME280;41384;51.418;7.286;2022-07-22T01:02:52;100350.81;;;19.16;96.46
55540;BME280;41384;51.418;7.286;2022-07-22T01:05:19;100350.25;;;19.14;95.89
55540;BME280;41384;51.418;7.286;2022-07-22T01:07:44;100357.94;;;18.88;97.99
55540;BME280;41384;51.418;7.286;2022-07-22T01:10:09;100361.16;;;19.07;95.69
55540;BME280;41384;51.418;7.286;2022-07-22T01:12:36;100354.03;;;18.95;96.14
55540;BME280;41384;51.418;7.286;2022-07-22T01:15:02;100358.38;;;18.40;100.00
55540;BME280;41384;51.418;7.286;2022-07-22T01:17:27;100357.56;;;18.79;98.16
55540;BME280;41384;51.418;7.286;2022-07-22T01:19:52;100362.13;;;18.78;97.19
55540;BME280;41384;51.418;7.286;2022-07-22T01:22:18;100362.03;;;18.95;95.88
55540;BME280;41384;51.418;7.286;2022-07-22T01:24:43;100361.47;;;18.93;95.82
55540;BME280;41384;51.418;7.286;2022-07-22T01:27:09;100357.13;;;18.87;95.88
55540;BME280;41384;51.418;7.286;2022-07-22T01:29:34;100357.69;;;18.67;97.37
55540;BME280;41384;51.418;7.286;2022-07-22T01:31:59;100362.06;;;18.73;98.74
55540;BME280;41384;51.418;7.286;2022-07-22T01:34:24;100354.88;;;18.79;98.22
55540;BME280;41384;51.418;7.286;2022-07-22T01:36:50;100346.50;;;18.92;95.44
55540;BME280;41384;51.418;7.286;2022-07-22T01:39:16;100351.59;;;18.94;95.10
55540;BME280;41384;51.418;7.286;2022-07-22T01:41:42;100359.75;;;18.82;95.14
55540;BME280;41384;51.418;7.286;2022-07-22T01:44:07;100353.22;;;18.95;94.98
55540;BME280;41384;51.418;7.286;2022-07-22T01:46:33;100352.59;;;18.88;96.75
55540;BME280;41384;51.418;7.286;2022-07-22T01:48:58;100352.09;;;18.69;97.30
55540;BME280;41384;51.418;7.286;2022-07-22T01:51:23;100359.56;;;19.06;95.08
55540;BME280;41384;51.418;7.286;2022-07-22T01:53:49;100352.59;;;18.88;94.85
55540;BME280;41384;51.418;7.286;2022-07-22T01:56:14;100356.50;;;18.97;95.42
55540;BME280;41384;51.418;7.286;2022-07-22T01:58:41;100351.59;;;18.72;97.15
55540;BME280;41384;51.418;7.286;2022-07-22T02:01:07;100352.16;;;18.74;96.70
55540;BME280;41384;51.418;7.286;2022-07-22T02:03:32;100347.84;;;18.73;97.54
55540;BME280;41384;51.418;7.286;2022-07-22T02:05:58;100349.50;;;18.96;96.16
55540;BME280;41384;51.418;7.286;2022-07-22T02:08:23;100348.88;;;18.89;93.82
55540;BME280;41384;51.418;7.286;2022-07-22T02:10:48;100345.19;;;18.95;94.29
55540;BME280;41384;51.418;7.286;2022-07-22T02:13:13;100347.22;;;18.65;97.90
55540;BME280;41384;51.418;7.286;2022-07-22T02:15:39;100350.38;;;18.79;97.43
55540;BME280;41384;51.418;7.286;2022-07-22T02:18:16;100349.41;;;18.69;97.38
55540;BME280;41384;51.418;7.286;2022-07-22T02:20:42;100348.16;;;18.54;99.50
55540;BME280;41384;51.418;7.286;2022-07-22T02:23:07;100354.31;;;18.77;97.96
55540;BME280;41384;51.418;7.286;2022-07-22T02:25:34;100346.44;;;18.65;96.98
55540;BME280;41384;51.418;7.286;2022-07-22T02:28:00;100351.09;;;18.35;99.09
55540;BME280;41384;51.418;7.286;2022-07-22T02:30:26;100349.47;;;18.34;100.00
55540;BME280;41384;51.418;7.286;2022-07-22T02:32:51;100352.66;;;18.31;100.00
55540;BME280;41384;51.418;7.286;2022-07-22T02:35:17;100361.72;;;18.13;100.00
55540;BME280;41384;51.418;7.286;2022-07-22T02:37:42;100348.56;;;18.46;100.00
55540;BME280;41384;51.418;7.286;2022-07-22T02:40:07;100350.88;;;18.20;100.00
55540;BME280;41384;51.418;7.286;2022-07-22T02:42:33;100351.44;;;18.05;100.00
55540;BME280;41384;51.418;7.286;2022-07-22T02:44:59;100347.13;;;18.38;100.00
55540;BME280;41384;51.418;7.286;2022-07-22T02:47:25;100338.09;;;18.61;99.08
55540;BME280;41384;51.418;7.286;2022-07-22T02:49:50;100342.03;;;18.36;100.00
55540;BME280;41384;51.418;7.286;2022-07-22T02:52:16;100346.75;;;18.51;100.00
55540;BME280;41384;51.418;7.286;2022-07-22T02:54:42;100339.16;;;18.83;97.08
55540;BME280;41384;51.418;7.286;2022-07-22T02:57:07;100336.31;;;18.67;98.21
55540;BME280;41384;51.418;7.286;2022-07-22T02:59:32;100344.78;;;18.42;100.00
55540;BME280;41384;51.418;7.286;2022-07-22T03:01:57;100341.81;;;18.21;100.00
55540;BME280;41384;51.418;7.286;2022-07-22T03:04:23;100336.72;;;18.81;97.91
55540;BME280;41384;51.418;7.286;2022-07-22T03:06:48;100344.50;;;18.60;97.46
55540;BME280;41384;51.418;7.286;2022-07-22T03:09:14;100353.44;;;18.32;100.00
55540;BME280;41384;51.418;7.286;2022-07-22T03:11:39;100353.69;;;18.30;100.00
55540;BME280;41384;51.418;7.286;2022-07-22T03:14:04;100349.56;;;18.22;100.00
55540;BME280;41384;51.418;7.286;2022-07-22T03:16:29;100342.94;;;18.64;98.85
55540;BME280;41384;51.418;7.286;2022-07-22T03:18:55;100355.38;;;18.76;95.96
55540;BME280;41384;51.418;7.286;2022-07-22T03:21:20;100355.81;;;18.67;95.76
55540;BME280;41384;51.418;7.286;2022-07-22T03:23:45;100355.66;;;18.18;99.89
55540;BME280;41384;51.418;7.286;2022-07-22T03:26:10;100356.09;;;18.49;99.46
55540;BME280;41384;51.418;7.286;2022-07-22T03:28:36;100353.63;;;18.64;98.02
55540;BME280;41384;51.418;7.286;2022-07-22T03:31:01;100358.13;;;18.42;99.18
55540;BME280;41384;51.418;7.286;2022-07-22T03:33:26;100357.88;;;18.43;100.00
55540;BME280;41384;51.418;7.286;2022-07-22T03:35:52;100356.28;;;18.25;100.00
55540;BME280;41384;51.418;7.286;2022-07-22T03:38:17;100360.66;;;18.31;100.00
55540;BME280;41384;51.418;7.286;2022-07-22T03:40:42;100365.50;;;18.17;100.00
55540;BME280;41384;51.418;7.286;2022-07-22T03:43:07;100363.75;;;18.06;100.00
55540;BME280;41384;51.418;7.286;2022-07-22T03:45:33;100363.53;;;17.78;100.00
55540;BME280;41384;51.418;7.286;2022-07-22T03:47:58;100361.56;;;17.28;100.00
55540;BME280;41384;51.418;7.286;2022-07-22T03:50:24;100359.41;;;17.42;100.00
55540;BME280;41384;51.418;7.286;2022-07-22T03:52:50;100362.69;;;17.32;100.00
55540;BME280;41384;51.418;7.286;2022-07-22T03:55:15;100359.44;;;17.59;100.00
55540;BME280;41384;51.418;7.286;2022-07-22T03:57:40;100366.00;;;17.68;100.00
55540;BME280;41384;51.418;7.286;2022-07-22T04:00:06;100369.06;;;17.60;100.00
55540;BME280;41384;51.418;7.286;2022-07-22T04:02:32;100360.09;;;17.66;100.00
55540;BME280;41384;51.418;7.286;2022-07-22T04:04:57;100367.97;;;17.44;100.00
55540;BME280;41384;51.418;7.286;2022-07-22T04:07:22;100362.34;;;17.57;100.00
55540;BME280;41384;51.418;7.286;2022-07-22T04:09:47;100370.44;;;17.62;100.00
55540;BME280;41384;51.418;7.286;2022-07-22T04:12:13;100368.69;;;17.68;100.00
55540;BME280;41384;51.418;7.286;2022-07-22T04:14:38;100368.13;;;17.66;100.00
55540;BME280;41384;51.418;7.286;2022-07-22T04:17:03;100366.84;;;17.86;100.00
55540;BME280;41384;51.418;7.286;2022-07-22T04:19:29;100367.66;;;17.86;100.00
55540;BME280;41384;51.418;7.286;2022-07-22T04:21:54;100369.81;;;17.72;99.49
55540;BME280;41384;51.418;7.286;2022-07-22T04:24:19;100365.97;;;17.97;99.11
55540;BME280;41384;51.418;7.286;2022-07-22T04:26:45;100370.69;;;18.07;96.81
55540;BME280;41384;51.418;7.286;2022-07-22T04:29:10;100366.00;;;18.14;97.93
55540;BME280;41384;51.418;7.286;2022-07-22T04:31:35;100362.53;;;18.14;96.46
55540;BME280;41384;51.418;7.286;2022-07-22T04:34:00;100367.97;;;17.90;97.35
55540;BME280;41384;51.418;7.286;2022-07-22T04:36:26;100366.09;;;17.73;99.74
55540;BME280;41384;51.418;7.286;2022-07-22T04:38:51;100363.22;;;17.92;99.89
55540;BME280;41384;51.418;7.286;2022-07-22T04:41:16;100364.81;;;17.76;99.23
55540;BME280;41384;51.418;7.286;2022-07-22T04:43:42;100360.75;;;18.19;97.52
55540;BME280;41384;51.418;7.286;2022-07-22T04:46:07;100362.16;;;17.93;99.82
55540;BME280;41384;51.418;7.286;2022-07-22T04:48:33;100359.41;;;17.88;100.00
55540;BME280;41384;51.418;7.286;2022-07-22T04:51:00;100356.09;;;17.98;98.69
55540;BME280;41384;51.418;7.286;2022-07-22T04:53:26;100350.31;;;18.18;98.24
55540;BME280;41384;51.418;7.286;2022-07-22T04:55:51;100353.84;;;18.06;97.78
55540;BME280;41384;51.418;7.286;2022-07-22T04:58:16;100356.94;;;18.15;99.66
55540;BME280;41384;51.418;7.286;2022-07-22T05:00:41;100350.63;;;18.21;98.16
55540;BME280;41384;51.418;7.286;2022-07-22T05:03:07;100355.72;;;18.23;96.78
55540;BME280;41384;51.418;7.286;2022-07-22T05:05:33;100359.53;;;18.10;97.64
55540;BME280;41384;51.418;7.286;2022-07-22T05:07:59;100352.16;;;18.00;96.73
55540;BME280;41384;51.418;7.286;2022-07-22T05:10:24;100359.44;;;18.05;98.05
55540;BME280;41384;51.418;7.286;2022-07-22T05:12:49;100360.59;;;18.26;97.64
55540;BME280;41384;51.418;7.286;2022-07-22T05:15:15;100359.03;;;18.30;95.88
55540;BME280;41384;51.418;7.286;2022-07-22T05:17:40;100351.25;;;18.29;96.90
55540;BME280;41384;51.418;7.286;2022-07-22T05:20:05;100356.13;;;18.32;97.74
55540;BME280;41384;51.418;7.286;2022-07-22T05:22:31;100362.56;;;18.53;96.12
55540;BME280;41384;51.418;7.286;2022-07-22T05:24:56;100366.00;;;18.71;94.83
55540;BME280;41384;51.418;7.286;2022-07-22T05:27:21;100368.41;;;18.33;94.33
55540;BME280;41384;51.418;7.286;2022-07-22T05:29:47;100363.84;;;18.50;97.84
55540;BME280;41384;51.418;7.286;2022-07-22T05:32:12;100373.13;;;18.43;95.12
55540;BME280;41384;51.418;7.286;2022-07-22T05:34:37;100369.81;;;18.75;94.87
55540;BME280;41384;51.418;7.286;2022-07-22T05:37:03;100368.59;;;18.83;92.80
55540;BME280;41384;51.418;7.286;2022-07-22T05:39:28;100381.13;;;18.60;93.91
55540;BME280;41384;51.418;7.286;2022-07-22T05:41:53;100372.38;;;18.87;92.80
55540;BME280;41384;51.418;7.286;2022-07-22T05:44:18;100374.22;;;18.64;93.33
55540;BME280;41384;51.418;7.286;2022-07-22T05:46:44;100382.06;;;18.53;93.28
55540;BME280;41384;51.418;7.286;2022-07-22T05:49:09;100384.78;;;18.76;92.72
55540;BME280;41384;51.418;7.286;2022-07-22T05:51:34;100388.00;;;18.56;93.69
55540;BME280;41384;51.418;7.286;2022-07-22T05:54:00;100378.38;;;18.37;95.43
55540;BME280;41384;51.418;7.286;2022-07-22T05:56:27;100377.91;;;18.23;92.64
55540;BME280;41384;51.418;7.286;2022-07-22T05:58:52;100384.63;;;18.26;92.28
55540;BME280;41384;51.418;7.286;2022-07-22T06:01:18;100381.53;;;18.17;94.33
55540;BME280;41384;51.418;7.286;2022-07-22T06:03:43;100377.59;;;18.20;94.75
55540;BME280;41384;51.418;7.286;2022-07-22T06:06:08;100372.81;;;18.05;91.31
55540;BME280;41384;51.418;7.286;2022-07-22T06:08:35;100373.44;;;18.12;92.07
55540;BME280;41384;51.418;7.286;2022-07-22T06:11:01;100366.88;;;18.54;90.62
55540;BME280;41384;51.418;7.286;2022-07-22T06:13:26;100361.56;;;18.20;90.58
55540;BME280;41384;51.418;7.286;2022-07-22T06:15:52;100364.59;;;18.46;90.34
55540;BME280;41384;51.418;7.286;2022-07-22T06:18:17;100362.16;;;18.61;90.08
55540;BME280;41384;51.418;7.286;2022-07-22T06:20:43;100367.00;;;18.64;90.92
55540;BME280;41384;51.418;7.286;2022-07-22T06:23:08;100365.78;;;18.72;89.58
55540;BME280;41384;51.418;7.286;2022-07-22T06:25:33;100374.50;;;18.85;88.75
55540;BME280;41384;51.418;7.286;2022-07-22T06:27:58;100370.88;;;18.74;87.17
55540;BME280;41384;51.418;7.286;2022-07-22T06:30:24;100362.75;;;18.86;85.29
55540;BME280;41384;51.418;7.286;2022-07-22T06:32:49;100370.13;;;18.78;86.87
55540;BME280;41384;51.418;7.286;2022-07-22T06:35:14;100369.16;;;18.85;84.47
55540;BME280;41384;51.418;7.286;2022-07-22T06:37:40;100370.25;;;18.66;82.74
55540;BME280;41384;51.418;7.286;2022-07-22T06:40:05;100376.72;;;18.53;86.07
55540;BME280;41384;51.418;7.286;2022-07-22T06:42:31;100379.66;;;18.91;82.40
55540;BME280;41384;51.418;7.286;2022-07-22T06:44:56;100372.44;;;19.09;84.06
55540;BME280;41384;51.418;7.286;2022-07-22T06:47:22;100377.50;;;19.10;86.53
55540;BME280;41384;51.418;7.286;2022-07-22T06:49:47;100373.47;;;19.08;84.27
55540;BME280;41384;51.418;7.286;2022-07-22T06:52:12;100381.13;;;18.99;83.40
55540;BME280;41384;51.418;7.286;2022-07-22T06:54:37;100371.44;;;19.15;82.88
55540;BME280;41384;51.418;7.286;2022-07-22T06:57:03;100373.97;;;19.05;83.27
55540;BME280;41384;51.418;7.286;2022-07-22T06:59:28;100373.19;;;18.87;82.72
55540;BME280;41384;51.418;7.286;2022-07-22T07:01:53;100367.88;;;19.09;83.79
55540;BME280;41384;51.418;7.286;2022-07-22T07:04:19;100369.38;;;19.00;84.81
55540;BME280;41384;51.418;7.286;2022-07-22T07:06:44;100363.19;;;19.00;82.98
55540;BME280;41384;51.418;7.286;2022-07-22T07:09:10;100365.81;;;19.17;83.43
55540;BME280;41384;51.418;7.286;2022-07-22T07:11:35;100368.31;;;19.23;84.25
55540;BME280;41384;51.418;7.286;2022-07-22T07:14:01;100372.84;;;19.23;82.26
55540;BME280;41384;51.418;7.286;2022-07-22T07:16:26;100365.63;;;19.01;81.43
55540;BME280;41384;51.418;7.286;2022-07-22T07:18:51;100365.47;;;19.08;83.04
55540;BME280;41384;51.418;7.286;2022-07-22T07:21:17;100359.88;;;18.92;79.82
55540;BME280;41384;51.418;7.286;2022-07-22T07:23:42;100354.19;;;19.06;80.93
55540;BME280;41384;51.418;7.286;2022-07-22T07:26:07;100352.81;;;19.03;77.16
55540;BME280;41384;51.418;7.286;2022-07-22T07:28:32;100356.84;;;19.28;80.24
55540;BME280;41384;51.418;7.286;2022-07-22T07:30:58;100350.53;;;19.39;83.61
55540;BME280;41384;51.418;7.286;2022-07-22T07:33:23;100358.06;;;19.15;79.98
55540;BME280;41384;51.418;7.286;2022-07-22T07:35:49;100360.78;;;19.20;79.15
55540;BME280;41384;51.418;7.286;2022-07-22T07:38:14;100357.94;;;19.32;78.15
55540;BME280;41384;51.418;7.286;2022-07-22T07:40:40;100354.72;;;19.30;79.72
55540;BME280;41384;51.418;7.286;2022-07-22T07:43:05;100360.66;;;19.10;78.65
55540;BME280;41384;51.418;7.286;2022-07-22T07:45:31;100358.81;;;19.38;76.08
55540;BME280;41384;51.418;7.286;2022-07-22T07:47:56;100359.66;;;19.71;79.52
55540;BME280;41384;51.418;7.286;2022-07-22T07:50:21;100359.38;;;19.40;78.15
55540;BME280;41384;51.418;7.286;2022-07-22T07:52:47;100362.56;;;19.64;78.06
55540;BME280;41384;51.418;7.286;2022-07-22T07:55:13;100356.34;;;19.31;74.24
55540;BME280;41384;51.418;7.286;2022-07-22T07:57:39;100355.47;;;19.80;74.28
55540;BME280;41384;51.418;7.286;2022-07-22T08:00:07;100367.53;;;19.28;74.02
55540;BME280;41384;51.418;7.286;2022-07-22T08:02:34;100363.59;;;19.58;74.74
55540;BME280;41384;51.418;7.286;2022-07-22T08:04:59;100361.50;;;19.65;71.52
55540;BME280;41384;51.418;7.286;2022-07-22T08:07:25;100360.53;;;19.49;71.90
55540;BME280;41384;51.418;7.286;2022-07-22T08:09:50;100363.19;;;19.22;75.40
55540;BME280;41384;51.418;7.286;2022-07-22T08:12:16;100365.19;;;19.59;70.83
55540;BME280;41384;51.418;7.286;2022-07-22T08:14:41;100354.78;;;19.35;70.90
55540;BME280;41384;51.418;7.286;2022-07-22T08:17:06;100354.63;;;19.75;73.28
55540;BME280;41384;51.418;7.286;2022-07-22T08:19:31;100348.88;;;19.61;69.16
55540;BME280;41384;51.418;7.286;2022-07-22T08:21:57;100346.25;;;19.66;72.86
55540;BME280;41384;51.418;7.286;2022-07-22T08:24:22;100339.06;;;19.72;73.39
55540;BME280;41384;51.418;7.286;2022-07-22T08:26:47;100349.34;;;19.85;73.81
55540;BME280;41384;51.418;7.286;2022-07-22T08:29:13;100350.66;;;19.82;71.28
55540;BME280;41384;51.418;7.286;2022-07-22T08:31:38;100354.59;;;19.97;73.37
55540;BME280;41384;51.418;7.286;2022-07-22T08:34:04;100356.78;;;20.05;71.60
55540;BME280;41384;51.418;7.286;2022-07-22T08:36:30;100357.53;;;20.01;70.99
55540;BME280;41384;51.418;7.286;2022-07-22T08:38:55;100356.19;;;19.71;69.84
55540;BME280;41384;51.418;7.286;2022-07-22T08:41:23;100351.50;;;20.16;70.97
55540;BME280;41384;51.418;7.286;2022-07-22T08:43:48;100350.31;;;20.01;67.81
55540;BME280;41384;51.418;7.286;2022-07-22T08:46:14;100353.13;;;19.89;68.79
55540;BME280;41384;51.418;7.286;2022-07-22T08:48:40;100353.16;;;20.22;68.62
55540;BME280;41384;51.418;7.286;2022-07-22T08:51:06;100352.13;;;20.28;70.36
55540;BME280;41384;51.418;7.286;2022-07-22T08:53:31;100352.22;;;20.44;66.97
55540;BME280;41384;51.418;7.286;2022-07-22T08:55:57;100347.84;;;20.32;64.55
55540;BME280;41384;51.418;7.286;2022-07-22T08:58:24;100354.06;;;20.00;67.25
55540;BME280;41384;51.418;7.286;2022-07-22T09:01:13;100353.31;;;20.10;66.54
55540;BME280;41384;51.418;7.286;2022-07-22T09:03:53;100365.44;;;20.18;69.63
55540;BME280;41384;51.418;7.286;2022-07-22T09:06:22;100369.25;;;20.70;67.27
55540;BME280;41384;51.418;7.286;2022-07-22T09:09:01;100370.16;;;20.38;66.40
55540;BME280;41384;51.418;7.286;2022-07-22T09:11:29;100365.34;;;20.83;64.80
55540;BME280;41384;51.418;7.286;2022-07-22T09:13:55;100368.56;;;20.04;67.11
55540;BME280;41384;51.418;7.286;2022-07-22T09:16:42;100371.88;;;20.17;67.63
55540;BME280;41384;51.418;7.286;2022-07-22T09:19:08;100363.97;;;20.37;66.03
55540;BME280;41384;51.418;7.286;2022-07-22T09:21:35;100369.94;;;20.12;69.59
55540;BME280;41384;51.418;7.286;2022-07-22T09:24:03;100368.72;;;20.25;67.56
55540;BME280;41384;51.418;7.286;2022-07-22T09:26:32;100367.19;;;20.82;65.97
55540;BME280;41384;51.418;7.286;2022-07-22T09:28:58;100366.44;;;20.44;67.10
55540;BME280;41384;51.418;7.286;2022-07-22T09:31:25;100362.03;;;20.27;67.15
55540;BME280;41384;51.418;7.286;2022-07-22T09:33:50;100362.91;;;20.01;68.37
55540;BME280;41384;51.418;7.286;2022-07-22T09:36:19;100364.16;;;20.74;67.26
55540;BME280;41384;51.418;7.286;2022-07-22T09:38:44;100362.94;;;20.92;68.95
55540;BME280;41384;51.418;7.286;2022-07-22T09:41:09;100367.81;;;21.05;65.06
55540;BME280;41384;51.418;7.286;2022-07-22T09:43:35;100364.91;;;21.12;64.33
55540;BME280;41384;51.418;7.286;2022-07-22T09:46:01;100366.72;;;20.96;66.54
55540;BME280;41384;51.418;7.286;2022-07-22T09:48:27;100361.72;;;21.25;65.38
55540;BME280;41384;51.418;7.286;2022-07-22T09:50:54;100368.53;;;20.80;65.01
55540;BME280;41384;51.418;7.286;2022-07-22T09:53:21;100365.41;;;21.04;64.40
55540;BME280;41384;51.418;7.286;2022-07-22T09:55:48;100365.28;;;21.52;63.22
55540;BME280;41384;51.418;7.286;2022-07-22T09:58:13;100363.19;;;21.90;62.40
55540;BME280;41384;51.418;7.286;2022-07-22T10:00:40;100367.97;;;21.57;64.30
55540;BME280;41384;51.418;7.286;2022-07-22T10:03:08;100372.13;;;21.11;65.22
55540;BME280;41384;51.418;7.286;2022-07-22T10:05:41;100366.34;;;21.40;63.12
55540;BME280;41384;51.418;7.286;2022-07-22T10:08:07;100372.28;;;20.79;63.18
55540;BME280;41384;51.418;7.286;2022-07-22T10:10:35;100363.91;;;20.70;67.12
55540;BME280;41384;51.418;7.286;2022-07-22T10:13:02;100363.66;;;20.77;65.61
55540;BME280;41384;51.418;7.286;2022-07-22T10:15:29;100358.47;;;21.13;64.11
55540;BME280;41384;51.418;7.286;2022-07-22T10:18:00;100359.97;;;20.83;66.09
55540;BME280;41384;51.418;7.286;2022-07-22T10:20:28;100361.97;;;21.19;65.48
55540;BME280;41384;51.418;7.286;2022-07-22T10:23:02;100353.78;;;21.67;64.63
55540;BME280;41384;51.418;7.286;2022-07-22T10:25:30;100348.84;;;21.27;64.44
55540;BME280;41384;51.418;7.286;2022-07-22T10:27:56;100360.09;;;21.19;64.21
55540;BME280;41384;51.418;7.286;2022-07-22T10:30:28;100353.56;;;20.94;64.64
55540;BME280;41384;51.418;7.286;2022-07-22T10:35:29;100347.25;;;21.42;65.45
55540;BME280;41384;51.418;7.286;2022-07-22T10:37:56;100338.66;;;21.40;62.02
55540;BME280;41384;51.418;7.286;2022-07-22T10:40:32;100344.56;;;21.47;63.31
55540;BME280;41384;51.418;7.286;2022-07-22T10:43:11;100349.03;;;21.05;63.96
55540;BME280;41384;51.418;7.286;2022-07-22T10:45:44;100340.22;;;21.10;61.62
55540;BME280;41384;51.418;7.286;2022-07-22T10:48:57;100339.47;;;20.71;61.78
55540;BME280;41384;51.418;7.286;2022-07-22T10:51:08;100320.84;;;20.92;64.57
55540;BME280;41384;51.418;7.286;2022-07-22T10:56:18;100312.06;;;22.32;62.23
55540;BME280;41384;51.418;7.286;2022-07-22T10:58:48;100310.53;;;21.68;61.48
55540;BME280;41384;51.418;7.286;2022-07-22T11:01:15;100310.78;;;21.98;61.20
55540;BME280;41384;51.418;7.286;2022-07-22T11:03:43;100314.13;;;20.95;62.72
55540;BME280;41384;51.418;7.286;2022-07-22T11:06:19;100306.41;;;21.14;64.89
55540;BME280;41384;51.418;7.286;2022-07-22T11:08:47;100317.22;;;20.71;63.85
55540;BME280;41384;51.418;7.286;2022-07-22T11:11:13;100319.69;;;20.78;66.30
55540;BME280;41384;51.418;7.286;2022-07-22T11:13:41;100311.16;;;20.86;65.65
55540;BME280;41384;51.418;7.286;2022-07-22T11:16:17;100314.97;;;21.11;65.16
55540;BME280;41384;51.418;7.286;2022-07-22T11:18:53;100312.34;;;21.37;60.96
55540;BME280;41384;51.418;7.286;2022-07-22T11:21:21;100306.41;;;21.24;63.39
55540;BME280;41384;51.418;7.286;2022-07-22T11:23:49;100308.91;;;21.67;63.90
55540;BME280;41384;51.418;7.286;2022-07-22T11:26:17;100316.97;;;21.93;60.39
55540;BME280;41384;51.418;7.286;2022-07-22T11:28:44;100312.91;;;21.54;62.43
55540;BME280;41384;51.418;7.286;2022-07-22T11:31:14;100322.59;;;22.02;61.13
55540;BME280;41384;51.418;7.286;2022-07-22T11:33:40;100317.25;;;21.86;60.20
55540;BME280;41384;51.418;7.286;2022-07-22T11:36:07;100315.34;;;21.56;60.71
55540;BME280;41384;51.418;7.286;2022-07-22T11:38:49;100320.69;;;21.51;61.54
55540;BME280;41384;51.418;7.286;2022-07-22T11:41:18;100320.56;;;20.94;62.79
55540;BME280;41384;51.418;7.286;2022-07-22T11:43:46;100321.00;;;21.85;62.18
55540;BME280;41384;51.418;7.286;2022-07-22T11:46:13;100317.78;;;21.78;60.81
55540;BME280;41384;51.418;7.286;2022-07-22T11:48:40;100315.00;;;22.56;59.18
55540;BME280;41384;51.418;7.286;2022-07-22T11:51:07;100304.47;;;23.15;57.49
55540;BME280;41384;51.418;7.286;2022-07-22T11:53:35;100304.94;;;22.77;56.25
55540;BME280;41384;51.418;7.286;2022-07-22T11:56:02;100306.38;;;23.14;55.65
55540;BME280;41384;51.418;7.286;2022-07-22T12:01:05;100299.00;;;22.80;56.28
55540;BME280;41384;51.418;7.286;2022-07-22T12:03:33;100304.34;;;22.91;57.18
55540;BME280;41384;51.418;7.286;2022-07-22T12:06:00;100296.22;;;22.96;58.11
55540;BME280;41384;51.418;7.286;2022-07-22T12:08:26;100295.59;;;23.59;55.24
55540;BME280;41384;51.418;7.286;2022-07-22T12:10:51;100297.81;;;23.82;54.40
55540;BME280;41384;51.418;7.286;2022-07-22T12:13:18;100292.50;;;24.06;52.96
55540;BME280;41384;51.418;7.286;2022-07-22T12:15:43;100291.78;;;23.95;52.87
55540;BME280;41384;51.418;7.286;2022-07-22T12:18:19;100292.19;;;23.78;53.87
55540;BME280;41384;51.418;7.286;2022-07-22T12:20:48;100287.28;;;24.15;53.33
55540;BME280;41384;51.418;7.286;2022-07-22T12:23:13;100278.97;;;24.36;53.41
55540;BME280;41384;51.418;7.286;2022-07-22T12:25:56;100274.59;;;24.64;53.05
55540;BME280;41384;51.418;7.286;2022-07-22T12:28:21;100276.97;;;25.09;52.74
55540;BME280;41384;51.418;7.286;2022-07-22T12:30:53;100284.09;;;24.37;54.79
55540;BME280;41384;51.418;7.286;2022-07-22T12:33:20;100284.03;;;24.42;52.73
55540;BME280;41384;51.418;7.286;2022-07-22T12:36:06;100278.78;;;24.51;51.31
55540;BME280;41384;51.418;7.286;2022-07-22T12:38:32;100275.09;;;24.90;50.61
55540;BME280;41384;51.418;7.286;2022-07-22T12:43:49;100266.34;;;25.51;49.38
55540;BME280;41384;51.418;7.286;2022-07-22T12:46:15;100266.13;;;24.71;51.12
55540;BME280;41384;51.418;7.286;2022-07-22T12:48:49;100274.22;;;23.68;54.74
55540;BME280;41384;51.418;7.286;2022-07-22T12:51:15;100263.03;;;23.85;53.77
55540;BME280;41384;51.418;7.286;2022-07-22T12:53:40;100263.34;;;23.49;54.53
55540;BME280;41384;51.418;7.286;2022-07-22T12:56:06;100272.72;;;23.12;54.39